Time;durP1;ratioP1;P1;durP2;ratioP2;P2;SDS_P1;SDS_P2;PMS_P1;PMS_P2;Temp;Humidity;BMP_temperature;BMP_pressure;BME280_temperature;BME280_humidity;BME280_pressure;Samples;Min_cycle;Max_cycle;Signal;HPM_P1;HPM_P2
2021/08/20 00:02:24;;;;;;;;;;;;;;;;;;5008411;28;19987;-72
2021/08/20 00:04:50;;;;;;;;;;;;;;;;;;5003214;28;19989;-72
2021/08/20 00:07:15;;;;;;;;;;;;;;;;;;5009753;28;19917;-72
2021/08/20 00:09:40;;;;;;;;;;;;;;;;;;5006180;28;19921;-72
2021/08/20 00:12:08;;;;;;;;;;;;;;;;;;5005221;28;19914;-72
2021/08/20 00:14:33;;;;;;;;;;;;;;;;;;5010708;28;20024;-72
2021/08/20 00:16:58;;;;;;;;;;;;;;;;;;5003286;28;20267;-72
2021/08/20 00:19:23;;;;;;;;;;;;;;;;;;5010527;28;19918;-73
2021/08/20 00:21:48;;;;;;;;;;;;;;;;;;5003347;28;19944;-72
2021/08/20 00:24:16;;;;;;;;;;;;;;;;;;5022130;28;19965;-72
2021/08/20 00:26:42;;;;;;;;;;;;;;;;;;5012870;28;19942;-72
2021/08/20 00:29:09;;;;;;;;;;;;;;;;;;5004698;28;19922;-72
2021/08/20 00:31:35;;;;;;;;;;;;;;;;;;5016844;28;19980;-72
2021/08/20 00:34:01;;;;;;;;;;;;;;;;;;4994188;28;19921;-72
2021/08/20 00:36:26;;;;;;;;;;;;;;;;;;5038629;28;19918;-73
2021/08/20 00:38:51;;;;;;;;;;;;;;;;;;5013322;28;19913;-73
2021/08/20 00:41:16;;;;;;;;;;;;;;;;;;5037109;28;20311;-72
2021/08/20 00:43:43;;;;;;;;;;;;;;;;;;5028741;28;19918;-73
2021/08/20 00:46:09;;;;;;;;;;;;;;;;;;5039101;28;20319;-72
2021/08/20 00:48:34;;;;;;;;;;;;;;;;;;5002928;28;20437;-73
2021/08/20 00:50:59;;;;;;;;;;;;;;;;;;5014111;28;19921;-72
2021/08/20 00:53:25;;;;;;;;;;;;;;;;;;5004356;28;19917;-72
2021/08/20 00:55:50;;;;;;;;;;;;;;;;;;5011071;28;19940;-73
2021/08/20 00:58:16;;;;;;;;;;;;;;;;;;5007140;28;19913;-72
2021/08/20 01:00:41;;;;;;;;;;;;;;;;;;5019518;28;19918;-73
2021/08/20 01:03:06;;;;;;;;;;;;;;;;;;5010496;28;19928;-72
2021/08/20 01:05:31;;;;;;;;;;;;;;;;;;5004532;28;19918;-72
2021/08/20 01:07:56;;;;;;;;;;;;;;;;;;5029205;28;19929;-72
2021/08/20 01:10:22;;;;;;;;;;;;;;;;;;5006286;28;19924;-72
2021/08/20 01:12:47;;;;;;;;;;;;;;;;;;5036562;28;20425;-72
2021/08/20 01:15:12;;;;;;;;;;;;;;;;;;5016674;28;19918;-72
2021/08/20 01:17:41;;;;;;;;;;;;;;;;;;5019076;28;19913;-72
2021/08/20 01:20:07;;;;;;;;;;;;;;;;;;5043251;28;20279;-72
2021/08/20 01:22:32;;;;;;;;;;;;;;;;;;5035351;28;19918;-73
2021/08/20 01:25:00;;;;;;;;;;;;;;;;;;5034494;28;19917;-73
2021/08/20 01:27:25;;;;;;;;;;;;;;;;;;5043724;28;19984;-73
2021/08/20 01:29:50;;;;;;;;;;;;;;;;;;5020533;28;19976;-72
2021/08/20 01:32:17;;;;;;;;;;;;;;;;;;5027466;28;19921;-73
2021/08/20 01:34:43;;;;;;;;;;;;;;;;;;5021342;28;19918;-74
2021/08/20 01:37:08;;;;;;;;;;;;;;;;;;5009028;28;19917;-72
2021/08/20 01:39:33;;;;;;;;;;;;;;;;;;5025792;28;20366;-73
2021/08/20 01:41:59;;;;;;;;;;;;;;;;;;5009450;28;20308;-73
2021/08/20 01:44:24;;;;;;;;;;;;;;;;;;5012780;28;20228;-72
2021/08/20 01:46:49;;;;;;;;;;;;;;;;;;5031774;28;19949;-73
2021/08/20 01:49:14;;;;;;;;;;;;;;;;;;4998980;28;19925;-73
2021/08/20 01:51:40;;;;;;;;;;;;;;;;;;5041131;28;19913;-72
2021/08/20 01:54:05;;;;;;;;;;;;;;;;;;5032269;28;20013;-73
2021/08/20 01:56:32;;;;;;;;;;;;;;;;;;5042009;28;19914;-72
2021/08/20 01:59:00;;;;;;;;;;;;;;;;;;5033481;28;19925;-73
2021/08/20 02:01:25;;;;;;;;;;;;;;;;;;5017553;28;19922;-72
2021/08/20 02:03:50;;;;;;;;;;;;;;;;;;5044208;28;19913;-73
2021/08/20 02:06:16;;;;;;;;;;;;;;;;;;5034797;28;19925;-73
2021/08/20 02:08:43;;;;;;;;;;;;;;;;;;5023982;28;19990;-73
2021/08/20 02:11:09;;;;;;;;;;;;;;;;;;5015103;28;19933;-72
2021/08/20 02:13:38;;;;;;;;;;;;;;;;;;5019825;28;19924;-72
2021/08/20 02:16:04;;;;;;;;;;;;;;;;;;5027403;28;19933;-72
2021/08/20 02:18:29;;;;;;;;;;;;;;;;;;5033621;28;19918;-73
2021/08/20 02:20:57;;;;;;;;;;;;;;;;;;5013347;28;19922;-73
2021/08/20 02:23:25;;;;;;;;;;;;;;;;;;5015652;28;20290;-72
2021/08/20 02:25:50;;;;;;;;;;;;;;;;;;5018534;28;20434;-72
2021/08/20 02:28:15;;;;;;;;;;;;;;;;;;5009010;28;19929;-72
2021/08/20 02:30:40;;;;;;;;;;;;;;;;;;5004080;28;20007;-72
2021/08/20 02:33:08;;;;;;;;;;;;;;;;;;5023418;28;19918;-74
2021/08/20 02:35:35;;;;;;;;;;;;;;;;;;5009260;28;19918;-72
2021/08/20 02:38:00;;;;;;;;;;;;;;;;;;5007420;28;19963;-73
2021/08/20 02:40:28;;;;;;;;;;;;;;;;;;5024980;28;19917;-73
2021/08/20 02:42:53;;;;;;;;;;;;;;;;;;4991281;28;20169;-72
2021/08/20 02:45:19;;;;;;;;;;;;;;;;;;5018852;28;19917;-74
2021/08/20 02:47:46;;;;;;;;;;;;;;;;;;5043291;28;19987;-73
2021/08/20 02:50:11;;;;;;;;;;;;;;;;;;5036010;28;19932;-71
2021/08/20 02:52:37;;;;;;;;;;;;;;;;;;5014432;28;19922;-73
2021/08/20 02:55:04;;;;;;;;;;;;;;;;;;5004183;28;19949;-73
2021/08/20 02:57:35;;;;;;;;;;;;;;;;;;5007143;28;20009;-73
2021/08/20 03:00:01;;;;;;;;;;;;;;;;;;5037864;28;19949;-71
2021/08/20 03:02:29;;;;;;;;;;;;;;;;;;5002155;28;19930;-72
2021/08/20 03:04:54;;;;;;;;;;;;;;;;;;5023297;28;19920;-72
2021/08/20 03:07:20;;;;;;;;;;;;;;;;;;5001175;28;20062;-72
2021/08/20 03:09:45;;;;;;;;;;;;;;;;;;5032678;28;20020;-73
2021/08/20 03:12:10;;;;;;;;;;;;;;;;;;5008240;28;20001;-72
2021/08/20 03:14:43;;;;;;;;;;;;;;;;;;5000256;28;19925;-73
2021/08/20 03:17:09;;;;;;;;;;;;;;;;;;5009717;28;19917;-72
2021/08/20 03:19:34;;;;;;;;;;;;;;;;;;5000850;28;19917;-73
2021/08/20 03:21:59;;;;;;;;;;;;;;;;;;5033451;28;19918;-72
2021/08/20 03:24:26;;;;;;;;;;;;;;;;;;5038590;28;20588;-72
2021/08/20 03:26:51;;;;;;;;;;;;;;;;;;5033800;28;19917;-72
2021/08/20 03:29:17;;;;;;;;;;;;;;;;;;5040969;28;20315;-72
2021/08/20 03:31:56;;;;;;;;;;;;;;;;;;5000969;28;19996;-72
2021/08/20 03:34:21;;;;;;;;;;;;;;;;;;5001751;28;19948;-73
2021/08/20 03:36:47;;;;;;;;;;;;;;;;;;5006825;28;19918;-72
2021/08/20 03:39:29;;;;;;;;;;;;;;;;;;5033199;28;19914;-73
2021/08/20 03:41:55;;;;;;;;;;;;;;;;;;5006995;28;19917;-73
2021/08/20 03:44:20;;;;;;;;;;;;;;;;;;5013786;28;19981;-73
2021/08/20 03:46:50;;;;;;;;;;;;;;;;;;5031259;28;19924;-72
2021/08/20 03:49:20;;;;;;;;;;;;;;;;;;5040576;28;20509;-73
2021/08/20 03:51:45;;;;;;;;;;;;;;;;;;5017836;28;19965;-72
2021/08/20 03:54:19;;;;;;;;;;;;;;;;;;5034298;28;19913;-73
2021/08/20 03:56:44;;;;;;;;;;;;;;;;;;5042785;28;19948;-72
2021/08/20 03:59:17;;;;;;;;;;;;;;;;;;5030655;28;19983;-74
2021/08/20 04:01:43;;;;;;;;;;;;;;;;;;5039462;28;19996;-73
2021/08/20 04:04:08;;;;;;;;;;;;;;;;;;5001300;28;19917;-73
2021/08/20 04:07:05;;;;;;;;;;;;;;;;;;5007656;28;19922;-72
2021/08/20 04:09:41;;;;;;;;;;;;;;;;;;5039914;28;19965;-74
2021/08/20 04:12:20;;;;;;;;;;;;;;;;;;5002843;28;19918;-72
2021/08/20 04:15:23;;;;;;;;;;;;;;;;;;5004925;28;19917;-72
2021/08/20 04:17:49;;;;;;;;;;;;;;;;;;5012097;28;20331;-72
2021/08/20 04:20:14;;;;;;;;;;;;;;;;;;5038237;28;19923;-72
2021/08/20 04:22:41;;;;;;;;;;;;;;;;;;5033250;28;19960;-72
2021/08/20 04:25:06;;;;;;;;;;;;;;;;;;5042418;28;19932;-73
2021/08/20 04:28:01;;;;;;;;;;;;;;;;;;5009190;28;19922;-74
2021/08/20 04:30:36;;;;;;;;;;;;;;;;;;5038483;28;20103;-71
2021/08/20 04:33:27;;;;;;;;;;;;;;;;;;5025839;28;20325;-71
2021/08/20 04:36:11;;;;;;;;;;;;;;;;;;5012656;28;19941;-71
2021/08/20 04:38:51;;;;;;;;;;;;;;;;;;5011687;28;19928;-71
2021/08/20 04:41:54;;;;;;;;;;;;;;;;;;4997762;28;19918;-71
2021/08/20 04:44:35;;;;;;;;;;;;;;;;;;4975150;28;19965;-73
2021/08/20 04:47:13;;;;;;;;;;;;;;;;;;4991360;28;20377;-72
2021/08/20 04:50:02;;;;;;;;;;;;;;;;;;5033353;28;20266;-71
2021/08/20 04:52:45;;;;;;;;;;;;;;;;;;5012385;28;20314;-71
2021/08/20 04:55:37;;;;;;;;;;;;;;;;;;5009303;28;19957;-72
2021/08/20 04:58:05;;;;;;;;;;;;;;;;;;5030869;28;19924;-71
2021/08/20 05:00:32;;;;;;;;;;;;;;;;;;5021031;28;19914;-71
2021/08/20 05:02:58;;;;;;;;;;;;;;;;;;5033748;28;19917;-72
2021/08/20 05:05:24;;;;;;;;;;;;;;;;;;5039455;28;19929;-71
2021/08/20 05:07:49;;;;;;;;;;;;;;;;;;5022950;28;19918;-72
2021/08/20 05:10:14;;;;;;;;;;;;;;;;;;5040217;28;20680;-72
2021/08/20 05:12:39;;;;;;;;;;;;;;;;;;5003470;28;19914;-74
2021/08/20 05:15:05;;;;;;;;;;;;;;;;;;5002790;28;19924;-73
2021/08/20 05:17:30;;;;;;;;;;;;;;;;;;5010038;28;19917;-73
2021/08/20 05:19:55;;;;;;;;;;;;;;;;;;5005358;28;19917;-73
2021/08/20 05:22:20;;;;;;;;;;;;;;;;;;5012058;28;19917;-73
2021/08/20 05:24:46;;;;;;;;;;;;;;;;;;5006302;28;20048;-73
2021/08/20 05:27:11;;;;;;;;;;;;;;;;;;5006085;28;19949;-72
2021/08/20 05:29:36;;;;;;;;;;;;;;;;;;5013194;28;19961;-73
2021/08/20 05:32:01;;;;;;;;;;;;;;;;;;5010647;28;19921;-72
2021/08/20 05:34:27;;;;;;;;;;;;;;;;;;5016550;28;19918;-73
2021/08/20 05:36:52;;;;;;;;;;;;;;;;;;5024105;28;19936;-74
2021/08/20 05:39:17;;;;;;;;;;;;;;;;;;5024643;28;20255;-73
2021/08/20 05:41:42;;;;;;;;;;;;;;;;;;5016663;28;20394;-74
2021/08/20 05:44:07;;;;;;;;;;;;;;;;;;5011254;28;20729;-72
2021/08/20 05:46:33;;;;;;;;;;;;;;;;;;5013810;28;19913;-73
2021/08/20 05:48:58;;;;;;;;;;;;;;;;;;5032493;28;20289;-73
2021/08/20 05:51:25;;;;;;;;;;;;;;;;;;5016965;28;19917;-73
2021/08/20 05:53:53;;;;;;;;;;;;;;;;;;5016247;28;19929;-74
2021/08/20 05:56:18;;;;;;;;;;;;;;;;;;5019798;28;19929;-74
2021/08/20 05:58:43;;;;;;;;;;;;;;;;;;5014063;28;19992;-73
2021/08/20 06:01:09;;;;;;;;;;;;;;;;;;5013164;28;19918;-73
2021/08/20 06:03:34;;;;;;;;;;;;;;;;;;5019396;28;19918;-74
2021/08/20 06:06:04;;;;;;;;;;;;;;;;;;5016296;28;20421;-73
2021/08/20 06:08:29;;;;;;;;;;;;;;;;;;5046115;28;19996;-74
2021/08/20 06:10:54;;;;;;;;;;;;;;;;;;5012239;28;19943;-74
2021/08/20 06:13:19;;;;;;;;;;;;;;;;;;5015102;28;19918;-74
2021/08/20 06:15:45;;;;;;;;;;;;;;;;;;5014823;28;19917;-74
2021/08/20 06:18:10;;;;;;;;;;;;;;;;;;5045838;28;19909;-73
2021/08/20 06:20:35;;;;;;;;;;;;;;;;;;5028691;28;19929;-73
2021/08/20 06:23:00;;;;;;;;;;;;;;;;;;5013341;28;19928;-73
2021/08/20 06:25:26;;;;;;;;;;;;;;;;;;5015408;28;20140;-73
2021/08/20 06:27:51;;;;;;;;;;;;;;;;;;5015466;28;19924;-72
2021/08/20 06:30:16;;;;;;;;;;;;;;;;;;5034354;28;20327;-73
2021/08/20 06:32:41;;;;;;;;;;;;;;;;;;5047229;28;19937;-74
2021/08/20 06:35:06;;;;;;;;;;;;;;;;;;5028738;28;19914;-74
2021/08/20 06:37:32;;;;;;;;;;;;;;;;;;5013761;28;19913;-73
2021/08/20 06:39:59;;;;;;;;;;;;;;;;;;5005984;28;19918;-72
2021/08/20 06:42:25;;;;;;;;;;;;;;;;;;5017122;28;19913;-74
2021/08/20 06:44:50;;;;;;;;;;;;;;;;;;5008141;28;19928;-70
2021/08/20 06:47:15;;;;;;;;;;;;;;;;;;5040902;28;19929;-70
2021/08/20 06:49:40;;;;;;;;;;;;;;;;;;5011049;28;19969;-70
2021/08/20 06:52:06;;;;;;;;;;;;;;;;;;5010877;28;20324;-70
2021/08/20 06:54:31;;;;;;;;;;;;;;;;;;5007215;28;19928;-69
2021/08/20 06:56:56;;;;;;;;;;;;;;;;;;5012104;28;19917;-70
2021/08/20 06:59:21;;;;;;;;;;;;;;;;;;5024854;28;19917;-70
2021/08/20 07:01:47;;;;;;;;;;;;;;;;;;5008692;28;19917;-72
2021/08/20 07:04:12;;;;;;;;;;;;;;;;;;5027177;28;19956;-71
2021/08/20 07:06:37;;;;;;;;;;;;;;;;;;5011778;28;20085;-69
2021/08/20 07:09:02;;;;;;;;;;;;;;;;;;5010327;28;19925;-70
2021/08/20 07:11:27;;;;;;;;;;;;;;;;;;5010556;28;19918;-68
2021/08/20 07:13:53;;;;;;;;;;;;;;;;;;5013206;28;20275;-70
2021/08/20 07:16:18;;;;;;;;;;;;;;;;;;5008563;28;19914;-71
2021/08/20 07:18:43;;;;;;;;;;;;;;;;;;5014289;28;19924;-72
2021/08/20 07:21:08;;;;;;;;;;;;;;;;;;5043005;28;19919;-72
2021/08/20 07:23:34;;;;;;;;;;;;;;;;;;5012127;28;20021;-71
2021/08/20 07:25:59;;;;;;;;;;;;;;;;;;5010646;28;19913;-71
2021/08/20 07:28:25;;;;;;;;;;;;;;;;;;5010998;28;19977;-72
2021/08/20 07:30:50;;;;;;;;;;;;;;;;;;5011164;28;19917;-72
2021/08/20 07:33:15;;;;;;;;;;;;;;;;;;5009290;28;19944;-71
2021/08/20 07:35:40;;;;;;;;;;;;;;;;;;5045889;28;20452;-71
2021/08/20 07:38:05;;;;;;;;;;;;;;;;;;5010089;28;19922;-72
2021/08/20 07:40:31;;;;;;;;;;;;;;;;;;5010062;28;20310;-71
2021/08/20 07:42:56;;;;;;;;;;;;;;;;;;5010088;28;20016;-71
2021/08/20 07:45:24;;;;;;;;;;;;;;;;;;5007635;28;19917;-71
2021/08/20 07:47:51;;;;;;;;;;;;;;;;;;5015008;28;19921;-72
2021/08/20 07:50:16;;;;;;;;;;;;;;;;;;5015028;28;19925;-70
2021/08/20 07:52:42;;;;;;;;;;;;;;;;;;5047538;28;19956;-71
2021/08/20 07:55:07;;;;;;;;;;;;;;;;;;5016447;28;20461;-72
2021/08/20 07:57:32;;;;;;;;;;;;;;;;;;5015642;28;19956;-70
2021/08/20 07:59:57;;;;;;;;;;;;;;;;;;5047578;28;19929;-71
2021/08/20 08:02:22;;;;;;;;;;;;;;;;;;5015379;28;19918;-71
2021/08/20 08:04:48;;;;;;;;;;;;;;;;;;5017393;28;19918;-72
2021/08/20 08:07:13;;;;;;;;;;;;;;;;;;5014440;28;19949;-70
2021/08/20 08:09:38;;;;;;;;;;;;;;;;;;5017028;28;20461;-70
2021/08/20 08:12:03;;;;;;;;;;;;;;;;;;5016387;28;19957;-73
2021/08/20 08:14:30;;;;;;;;;;;;;;;;;;5015923;28;19955;-71
2021/08/20 08:16:55;;;;;;;;;;;;;;;;;;5015391;28;19968;-73
2021/08/20 08:19:20;;;;;;;;;;;;;;;;;;5014857;28;19925;-71
2021/08/20 08:21:45;;;;;;;;;;;;;;;;;;5012765;28;19917;-73
2021/08/20 08:24:13;;;;;;;;;;;;;;;;;;5014278;28;19961;-70
2021/08/20 08:26:38;;;;;;;;;;;;;;;;;;5012718;28;19913;-73
2021/08/20 08:29:03;;;;;;;;;;;;;;;;;;5015148;28;19936;-72
2021/08/20 08:31:29;;;;;;;;;;;;;;;;;;5044096;28;19922;-71
2021/08/20 08:33:54;;;;;;;;;;;;;;;;;;5010570;28;19913;-72
2021/08/20 08:36:19;;;;;;;;;;;;;;;;;;5015109;28;19981;-70
2021/08/20 08:38:44;;;;;;;;;;;;;;;;;;5015239;28;20145;-71
2021/08/20 08:41:09;;;;;;;;;;;;;;;;;;5013105;28;19928;-72
2021/08/20 08:43:35;;;;;;;;;;;;;;;;;;5012795;28;19918;-71
2021/08/20 08:46:00;;;;;;;;;;;;;;;;;;5016741;28;19921;-71
2021/08/20 08:48:25;;;;;;;;;;;;;;;;;;5016503;28;19921;-71
2021/08/20 08:50:50;;;;;;;;;;;;;;;;;;5016999;28;19928;-71
2021/08/20 08:53:16;;;;;;;;;;;;;;;;;;5016525;28;19922;-71
2021/08/20 08:55:41;;;;;;;;;;;;;;;;;;5018930;28;19917;-72
2021/08/20 08:58:07;;;;;;;;;;;;;;;;;;5017506;28;20021;-72
2021/08/20 09:00:32;;;;;;;;;;;;;;;;;;5050153;28;19918;-71
2021/08/20 09:02:57;;;;;;;;;;;;;;;;;;5017426;28;19917;-71
2021/08/20 09:05:22;;;;;;;;;;;;;;;;;;5018663;28;19914;-72
2021/08/20 09:07:48;;;;;;;;;;;;;;;;;;5015716;28;19917;-72
2021/08/20 09:10:13;;;;;;;;;;;;;;;;;;5016636;28;20020;-72
2021/08/20 09:12:38;;;;;;;;;;;;;;;;;;5018958;28;19918;-74
2021/08/20 09:15:03;;;;;;;;;;;;;;;;;;5016647;28;19936;-72
2021/08/20 09:17:29;;;;;;;;;;;;;;;;;;5024578;28;19917;-72
2021/08/20 09:19:54;;;;;;;;;;;;;;;;;;5018899;28;19918;-73
2021/08/20 09:22:19;;;;;;;;;;;;;;;;;;5018491;28;19941;-73
2021/08/20 09:24:45;;;;;;;;;;;;;;;;;;5018751;28;19929;-72
2021/08/20 09:27:11;;;;;;;;;;;;;;;;;;5017670;28;19924;-73
2021/08/20 09:29:36;;;;;;;;;;;;;;;;;;5017570;28;20146;-73
2021/08/20 09:32:01;;;;;;;;;;;;;;;;;;5017512;28;19921;-73
2021/08/20 09:34:26;;;;;;;;;;;;;;;;;;5032235;28;19994;-72
2021/08/20 09:36:52;;;;;;;;;;;;;;;;;;5017575;28;19918;-73
2021/08/20 09:39:17;;;;;;;;;;;;;;;;;;5047022;28;19937;-71
2021/08/20 09:41:44;;;;;;;;;;;;;;;;;;5017017;28;19949;-73
2021/08/20 09:44:16;;;;;;;;;;;;;;;;;;5016034;28;19913;-73
2021/08/20 09:46:41;;;;;;;;;;;;;;;;;;5018130;28;19917;-74
2021/08/20 09:49:07;;;;;;;;;;;;;;;;;;5031560;28;19939;-71
2021/08/20 09:51:32;;;;;;;;;;;;;;;;;;5031715;28;20153;-73
2021/08/20 09:53:57;;;;;;;;;;;;;;;;;;5042621;28;19918;-72
2021/08/20 09:56:23;;;;;;;;;;;;;;;;;;5015234;28;19917;-74
2021/08/20 09:58:48;;;;;;;;;;;;;;;;;;5004123;28;20291;-75
2021/08/20 10:01:13;;;;;;;;;;;;;;;;;;5016514;28;19917;-75
2021/08/20 10:03:38;;;;;;;;;;;;;;;;;;5019812;28;20038;-76
2021/08/20 10:06:04;;;;;;;;;;;;;;;;;;5016904;28;19921;-73
2021/08/20 10:08:29;;;;;;;;;;;;;;;;;;5019494;28;19914;-73
2021/08/20 10:10:55;;;;;;;;;;;;;;;;;;5048581;28;20416;-74
2021/08/20 10:13:20;;;;;;;;;;;;;;;;;;5016387;28;19917;-74
2021/08/20 10:15:45;;;;;;;;;;;;;;;;;;5017338;28;19945;-74
2021/08/20 10:18:14;;;;;;;;;;;;;;;;;;5018751;28;19921;-74
2021/08/20 10:20:39;;;;;;;;;;;;;;;;;;5049082;28;19917;-74
2021/08/20 10:23:04;;;;;;;;;;;;;;;;;;5018007;28;19951;-74
2021/08/20 10:25:31;;;;;;;;;;;;;;;;;;5018396;28;19922;-73
2021/08/20 10:27:56;;;;;;;;;;;;;;;;;;5020155;28;19913;-75
2021/08/20 10:30:21;;;;;;;;;;;;;;;;;;5015666;28;19961;-75
2021/08/20 10:32:46;;;;;;;;;;;;;;;;;;5019925;28;19927;-74
2021/08/20 10:35:12;;;;;;;;;;;;;;;;;;5017477;28;20606;-74
2021/08/20 10:37:37;;;;;;;;;;;;;;;;;;5017036;28;19921;-74
2021/08/20 10:40:03;;;;;;;;;;;;;;;;;;5034968;28;19921;-75
2021/08/20 10:42:28;;;;;;;;;;;;;;;;;;5019786;28;19914;-73
2021/08/20 10:44:53;;;;;;;;;;;;;;;;;;5017408;28;19967;-75
2021/08/20 10:47:18;;;;;;;;;;;;;;;;;;5048234;28;19977;-73
2021/08/20 10:49:44;;;;;;;;;;;;;;;;;;5034335;28;19930;-72
2021/08/20 10:52:09;;;;;;;;;;;;;;;;;;5016723;28;19914;-74
2021/08/20 10:54:35;;;;;;;;;;;;;;;;;;5016491;28;19921;-73
2021/08/20 10:57:01;;;;;;;;;;;;;;;;;;5017316;28;20463;-74
2021/08/20 10:59:26;;;;;;;;;;;;;;;;;;5017615;28;19928;-74
2021/08/20 11:01:51;;;;;;;;;;;;;;;;;;5016515;28;19921;-73
2021/08/20 11:04:16;;;;;;;;;;;;;;;;;;5018550;28;19941;-74
2021/08/20 11:06:41;;;;;;;;;;;;;;;;;;5022152;28;19918;-74
2021/08/20 11:09:07;;;;;;;;;;;;;;;;;;5050260;28;19929;-74
2021/08/20 11:11:32;;;;;;;;;;;;;;;;;;5048437;28;19985;-75
2021/08/20 11:13:57;;;;;;;;;;;;;;;;;;5017434;28;19918;-73
2021/08/20 11:16:22;;;;;;;;;;;;;;;;;;5019705;28;19917;-73
2021/08/20 11:18:49;;;;;;;;;;;;;;;;;;5018046;28;19937;-74
2021/08/20 11:21:15;;;;;;;;;;;;;;;;;;5018600;28;19918;-73
2021/08/20 11:23:40;;;;;;;;;;;;;;;;;;5022035;28;20132;-74
2021/08/20 11:26:05;;;;;;;;;;;;;;;;;;5022461;28;19917;-74
2021/08/20 11:28:32;;;;;;;;;;;;;;;;;;5021448;28;19964;-75
2021/08/20 11:30:57;;;;;;;;;;;;;;;;;;5021756;28;19914;-75
2021/08/20 11:33:22;;;;;;;;;;;;;;;;;;5036767;28;20009;-74
2021/08/20 11:35:47;;;;;;;;;;;;;;;;;;5027290;28;19929;-74
2021/08/20 11:38:13;;;;;;;;;;;;;;;;;;5035999;28;19927;-75
2021/08/20 11:40:38;;;;;;;;;;;;;;;;;;5021427;28;19932;-73
2021/08/20 11:43:03;;;;;;;;;;;;;;;;;;5022300;28;20453;-74
2021/08/20 11:45:28;;;;;;;;;;;;;;;;;;5021351;28;19925;-74
2021/08/20 11:47:53;;;;;;;;;;;;;;;;;;5022019;28;19921;-74
2021/08/20 11:50:19;;;;;;;;;;;;;;;;;;5020872;28;19925;-74
2021/08/20 11:52:44;;;;;;;;;;;;;;;;;;5023313;28;19996;-72
2021/08/20 11:55:09;;;;;;;;;;;;;;;;;;5023112;28;20110;-73
2021/08/20 11:57:37;;;;;;;;;;;;;;;;;;5024937;28;20007;-73
2021/08/20 12:00:02;;;;;;;;;;;;;;;;;;5025438;28;19917;-74
2021/08/20 12:02:27;;;;;;;;;;;;;;;;;;5020213;28;19989;-71
2021/08/20 12:04:52;;;;;;;;;;;;;;;;;;5026116;28;19952;-71
2021/08/20 12:07:18;;;;;;;;;;;;;;;;;;5020746;28;19917;-73
2021/08/20 12:09:43;;;;;;;;;;;;;;;;;;5051162;28;19937;-74
2021/08/20 12:12:08;;;;;;;;;;;;;;;;;;5053843;28;19924;-74
2021/08/20 12:14:33;;;;;;;;;;;;;;;;;;5018878;28;19952;-74
2021/08/20 12:16:59;;;;;;;;;;;;;;;;;;5053197;28;19928;-73
2021/08/20 12:19:24;;;;;;;;;;;;;;;;;;5020729;28;19913;-73
2021/08/20 12:21:50;;;;;;;;;;;;;;;;;;5022358;28;20121;-73
2021/08/20 12:24:15;;;;;;;;;;;;;;;;;;5020033;28;19926;-77
2021/08/20 12:26:42;;;;;;;;;;;;;;;;;;5024959;28;19914;-76
2021/08/20 12:29:08;;;;;;;;;;;;;;;;;;5020189;28;19936;-76
2021/08/20 12:31:36;;;;;;;;;;;;;;;;;;5022430;28;19981;-75
2021/08/20 12:34:02;;;;;;;;;;;;;;;;;;5019232;28;20260;-76
2021/08/20 12:36:27;;;;;;;;;;;;;;;;;;5020635;28;19924;-78
2021/08/20 12:38:52;;;;;;;;;;;;;;;;;;5020475;28;19936;-80
2021/08/20 12:41:17;;;;;;;;;;;;;;;;;;5019576;28;19992;-76
2021/08/20 12:43:42;;;;;;;;;;;;;;;;;;5034044;28;19917;-77
2021/08/20 12:46:09;;;;;;;;;;;;;;;;;;5017642;28;19921;-78
2021/08/20 12:48:34;;;;;;;;;;;;;;;;;;5019805;28;19944;-76
2021/08/20 12:51:00;;;;;;;;;;;;;;;;;;5022299;28;19975;-77
2021/08/20 12:53:25;;;;;;;;;;;;;;;;;;5020144;28;20039;-76
2021/08/20 12:55:50;;;;;;;;;;;;;;;;;;5020762;28;19985;-76
2021/08/20 12:58:15;;;;;;;;;;;;;;;;;;5050422;28;19956;-77
2021/08/20 13:00:40;;;;;;;;;;;;;;;;;;5021142;28;19957;-75
2021/08/20 13:03:06;;;;;;;;;;;;;;;;;;5021195;28;19975;-74
2021/08/20 13:05:31;;;;;;;;;;;;;;;;;;5025198;28;19926;-76
2021/08/20 13:07:56;;;;;;;;;;;;;;;;;;5019974;28;20067;-76
2021/08/20 13:10:21;;;;;;;;;;;;;;;;;;5021532;28;20127;-76
2021/08/20 13:12:47;;;;;;;;;;;;;;;;;;5050554;28;20129;-76
2021/08/20 13:15:12;;;;;;;;;;;;;;;;;;5020064;28;19917;-74
2021/08/20 13:17:37;;;;;;;;;;;;;;;;;;5019153;28;20000;-75
2021/08/20 13:20:02;;;;;;;;;;;;;;;;;;5018425;28;19921;-74
2021/08/20 13:22:28;;;;;;;;;;;;;;;;;;5009625;28;19925;-77
2021/08/20 13:24:53;;;;;;;;;;;;;;;;;;5015720;28;19921;-74
2021/08/20 13:27:18;;;;;;;;;;;;;;;;;;5008266;28;19922;-74
2021/08/20 13:29:43;;;;;;;;;;;;;;;;;;5019381;28;19938;-74
2021/08/20 13:32:09;;;;;;;;;;;;;;;;;;5014128;28;19968;-74
2021/08/20 13:34:34;;;;;;;;;;;;;;;;;;5009202;28;19932;-75
2021/08/20 13:36:59;;;;;;;;;;;;;;;;;;5017047;28;19969;-75
2021/08/20 13:39:24;;;;;;;;;;;;;;;;;;5028958;28;19941;-74
2021/08/20 13:41:49;;;;;;;;;;;;;;;;;;5019799;28;19917;-75
2021/08/20 13:44:15;;;;;;;;;;;;;;;;;;5015468;28;19984;-75
2021/08/20 13:46:40;;;;;;;;;;;;;;;;;;5013422;28;19949;-76
2021/08/20 13:49:08;;;;;;;;;;;;;;;;;;5019062;28;19977;-76
2021/08/20 13:51:34;;;;;;;;;;;;;;;;;;5005041;28;19918;-76
2021/08/20 13:53:59;;;;;;;;;;;;;;;;;;5017899;28;19913;-75
2021/08/20 13:56:24;;;;;;;;;;;;;;;;;;5007916;28;19918;-75
2021/08/20 13:58:50;;;;;;;;;;;;;;;;;;5017146;28;19968;-74
2021/08/20 14:01:15;;;;;;;;;;;;;;;;;;5021126;28;19981;-75
2021/08/20 14:03:40;;;;;;;;;;;;;;;;;;5014200;28;19901;-75
2021/08/20 14:06:05;;;;;;;;;;;;;;;;;;5020918;28;20481;-75
2021/08/20 14:08:31;;;;;;;;;;;;;;;;;;5017406;28;19917;-75
2021/08/20 14:10:56;;;;;;;;;;;;;;;;;;5012655;28;19982;-75
2021/08/20 14:13:21;;;;;;;;;;;;;;;;;;5021774;28;19973;-75
2021/08/20 14:15:46;;;;;;;;;;;;;;;;;;5013794;28;19962;-75
2021/08/20 14:18:12;;;;;;;;;;;;;;;;;;5036461;28;19917;-74
2021/08/20 14:20:37;;;;;;;;;;;;;;;;;;5017502;28;19923;-74
2021/08/20 14:23:03;;;;;;;;;;;;;;;;;;5013730;28;19945;-76
2021/08/20 14:25:28;;;;;;;;;;;;;;;;;;5020150;28;19922;-73
2021/08/20 14:27:53;;;;;;;;;;;;;;;;;;5019395;28;19917;-75
2021/08/20 14:30:19;;;;;;;;;;;;;;;;;;5019281;28;19925;-75
2021/08/20 14:32:44;;;;;;;;;;;;;;;;;;5044115;28;19917;-75
2021/08/20 14:35:10;;;;;;;;;;;;;;;;;;5045931;28;19923;-73
2021/08/20 14:37:35;;;;;;;;;;;;;;;;;;5021188;28;19917;-76
2021/08/20 14:40:03;;;;;;;;;;;;;;;;;;5014450;28;20122;-76
2021/08/20 14:42:28;;;;;;;;;;;;;;;;;;5021351;28;19921;-75
2021/08/20 14:44:53;;;;;;;;;;;;;;;;;;5016297;28;19972;-75
2021/08/20 14:47:18;;;;;;;;;;;;;;;;;;5030317;28;19922;-75
2021/08/20 14:49:44;;;;;;;;;;;;;;;;;;5018824;28;19926;-75
2021/08/20 14:52:10;;;;;;;;;;;;;;;;;;5015203;28;19914;-75
2021/08/20 14:54:36;;;;;;;;;;;;;;;;;;5046178;28;19955;-76
2021/08/20 14:57:01;;;;;;;;;;;;;;;;;;5020688;28;20278;-75
2021/08/20 14:59:26;;;;;;;;;;;;;;;;;;5020202;28;19917;-75
2021/08/20 15:01:51;;;;;;;;;;;;;;;;;;5025141;28;19917;-75
2021/08/20 15:04:17;;;;;;;;;;;;;;;;;;5045681;28;19973;-75
2021/08/20 15:06:44;;;;;;;;;;;;;;;;;;5012814;28;19917;-75
2021/08/20 15:09:09;;;;;;;;;;;;;;;;;;5052141;28;19948;-75
2021/08/20 15:11:34;;;;;;;;;;;;;;;;;;5016812;28;19958;-75
2021/08/20 15:14:06;;;;;;;;;;;;;;;;;;5018297;28;19918;-75
2021/08/20 15:16:31;;;;;;;;;;;;;;;;;;5012169;28;19970;-75
2021/08/20 15:18:56;;;;;;;;;;;;;;;;;;5013524;28;19929;-75
2021/08/20 15:21:22;;;;;;;;;;;;;;;;;;5019019;28;19913;-75
2021/08/20 15:23:49;;;;;;;;;;;;;;;;;;5011027;28;19949;-75
2021/08/20 15:26:14;;;;;;;;;;;;;;;;;;5019388;28;19917;-75
2021/08/20 15:28:39;;;;;;;;;;;;;;;;;;5015067;28;19915;-73
2021/08/20 15:31:07;;;;;;;;;;;;;;;;;;5013131;28;19918;-75
2021/08/20 15:33:35;;;;;;;;;;;;;;;;;;5019856;28;19913;-74
2021/08/20 15:36:00;;;;;;;;;;;;;;;;;;5020084;28;19949;-74
2021/08/20 15:38:25;;;;;;;;;;;;;;;;;;5019888;28;19918;-77
2021/08/20 15:40:50;;;;;;;;;;;;;;;;;;5024461;28;19941;-77
2021/08/20 15:43:16;;;;;;;;;;;;;;;;;;5019374;28;19929;-77
2021/08/20 15:45:41;;;;;;;;;;;;;;;;;;5018312;28;19917;-77
2021/08/20 15:48:06;;;;;;;;;;;;;;;;;;5050220;28;20000;-77
2021/08/20 15:50:31;;;;;;;;;;;;;;;;;;5020912;28;19926;-77
2021/08/20 15:52:57;;;;;;;;;;;;;;;;;;5020528;28;19931;-77
2021/08/20 15:55:22;;;;;;;;;;;;;;;;;;5051793;28;19913;-77
2021/08/20 15:57:47;;;;;;;;;;;;;;;;;;5020404;28;19914;-76
2021/08/20 16:00:12;;;;;;;;;;;;;;;;;;5035046;28;19917;-77
2021/08/20 16:02:38;;;;;;;;;;;;;;;;;;5019281;28;19936;-77
2021/08/20 16:05:03;;;;;;;;;;;;;;;;;;5019904;28;19944;-77
2021/08/20 16:07:28;;;;;;;;;;;;;;;;;;5019161;28;19936;-77
2021/08/20 16:09:53;;;;;;;;;;;;;;;;;;5021974;28;19933;-77
2021/08/20 16:12:18;;;;;;;;;;;;;;;;;;5025591;28;19921;-77
2021/08/20 16:14:44;;;;;;;;;;;;;;;;;;5025092;28;19945;-76
2021/08/20 16:17:09;;;;;;;;;;;;;;;;;;5022035;28;20331;-77
2021/08/20 16:19:35;;;;;;;;;;;;;;;;;;5027692;28;19926;-77
2021/08/20 16:22:00;;;;;;;;;;;;;;;;;;5023757;28;20130;-76
2021/08/20 16:24:25;;;;;;;;;;;;;;;;;;5038555;28;19918;-76
2021/08/20 16:26:50;;;;;;;;;;;;;;;;;;5021262;28;19942;-76
2021/08/20 16:29:15;;;;;;;;;;;;;;;;;;5018742;28;19935;-76
2021/08/20 16:31:41;;;;;;;;;;;;;;;;;;5021146;28;19977;-76
2021/08/20 16:34:06;;;;;;;;;;;;;;;;;;5021029;28;19914;-76
2021/08/20 16:36:31;;;;;;;;;;;;;;;;;;5020009;28;19918;-76
2021/08/20 16:38:57;;;;;;;;;;;;;;;;;;5019237;28;19924;-75
2021/08/20 16:41:22;;;;;;;;;;;;;;;;;;5021692;28;19913;-76